sensor_id;sensor_type;location;lat;lon;timestamp;P1;durP1;ratioP1;P2;durP2;ratioP2
8421;SDS011;4248;48.196;10.924;2023-05-10T00:01:55;2.90;;;1.57;;
8421;SDS011;4248;48.196;10.924;2023-05-10T00:04:20;2.47;;;1.20;;
8421;SDS011;4248;48.196;10.924;2023-05-10T00:06:46;3.63;;;1.50;;
8421;SDS011;4248;48.196;10.924;2023-05-10T00:09:12;2.10;;;1.30;;
8421;SDS011;4248;48.196;10.924;2023-05-10T00:11:37;3.10;;;1.50;;
8421;SDS011;4248;48.196;10.924;2023-05-10T00:14:03;2.70;;;1.50;;
8421;SDS011;4248;48.196;10.924;2023-05-10T00:16:28;2.00;;;1.30;;
8421;SDS011;4248;48.196;10.924;2023-05-10T00:18:54;2.47;;;1.77;;
8421;SDS011;4248;48.196;10.924;2023-05-10T00:21:20;2.97;;;1.77;;
8421;SDS011;4248;48.196;10.924;2023-05-10T00:23:45;2.53;;;1.50;;
8421;SDS011;4248;48.196;10.924;2023-05-10T00:26:11;3.30;;;1.60;;
8421;SDS011;4248;48.196;10.924;2023-05-10T00:28:36;2.13;;;1.37;;
8421;SDS011;4248;48.196;10.924;2023-05-10T00:31:02;2.13;;;1.53;;
8421;SDS011;4248;48.196;10.924;2023-05-10T00:33:28;2.93;;;2.00;;
8421;SDS011;4248;48.196;10.924;2023-05-10T00:35:53;7.13;;;1.93;;
8421;SDS011;4248;48.196;10.924;2023-05-10T00:38:19;3.00;;;1.77;;
8421;SDS011;4248;48.196;10.924;2023-05-10T00:40:44;3.60;;;1.60;;
8421;SDS011;4248;48.196;10.924;2023-05-10T00:43:10;2.70;;;1.47;;
8421;SDS011;4248;48.196;10.924;2023-05-10T00:45:36;2.87;;;1.63;;
8421;SDS011;4248;48.196;10.924;2023-05-10T00:48:03;2.27;;;1.40;;
8421;SDS011;4248;48.196;10.924;2023-05-10T00:50:33;2.60;;;1.30;;
8421;SDS011;4248;48.196;10.924;2023-05-10T00:52:59;2.47;;;1.10;;
8421;SDS011;4248;48.196;10.924;2023-05-10T00:55:25;1.73;;;0.90;;
8421;SDS011;4248;48.196;10.924;2023-05-10T00:57:52;2.10;;;1.10;;
8421;SDS011;4248;48.196;10.924;2023-05-10T01:00:18;3.00;;;1.40;;
8421;SDS011;4248;48.196;10.924;2023-05-10T01:02:44;1.70;;;0.90;;
8421;SDS011;4248;48.196;10.924;2023-05-10T01:05:11;2.27;;;1.30;;
8421;SDS011;4248;48.196;10.924;2023-05-10T01:07:37;1.93;;;1.10;;
8421;SDS011;4248;48.196;10.924;2023-05-10T01:10:03;2.80;;;1.37;;
8421;SDS011;4248;48.196;10.924;2023-05-10T01:12:33;1.80;;;1.10;;
8421;SDS011;4248;48.196;10.924;2023-05-10T01:15:01;2.03;;;1.20;;
8421;SDS011;4248;48.196;10.924;2023-05-10T01:17:28;1.80;;;1.00;;
8421;SDS011;4248;48.196;10.924;2023-05-10T01:19:54;2.63;;;1.20;;
8421;SDS011;4248;48.196;10.924;2023-05-10T01:28:23;1.90;;;1.10;;
8421;SDS011;4248;48.196;10.924;2023-05-10T01:31:07;2.17;;;1.10;;
8421;SDS011;4248;48.196;10.924;2023-05-10T01:36:19;2.57;;;1.10;;
8421;SDS011;4248;48.196;10.924;2023-05-10T01:38:57;3.63;;;1.20;;
8421;SDS011;4248;48.196;10.924;2023-05-10T01:41:28;3.17;;;1.30;;
8421;SDS011;4248;48.196;10.924;2023-05-10T01:44:18;2.23;;;0.97;;
8421;SDS011;4248;48.196;10.924;2023-05-10T01:46:53;1.50;;;0.80;;
8421;SDS011;4248;48.196;10.924;2023-05-10T01:49:29;2.10;;;1.00;;
8421;SDS011;4248;48.196;10.924;2023-05-10T01:52:04;1.80;;;1.00;;
8421;SDS011;4248;48.196;10.924;2023-05-10T01:54:33;1.70;;;0.93;;
8421;SDS011;4248;48.196;10.924;2023-05-10T01:57:02;1.93;;;1.10;;
8421;SDS011;4248;48.196;10.924;2023-05-10T01:59:35;1.87;;;1.00;;
8421;SDS011;4248;48.196;10.924;2023-05-10T02:02:07;1.77;;;0.97;;
8421;SDS011;4248;48.196;10.924;2023-05-10T02:04:36;1.97;;;1.13;;
8421;SDS011;4248;48.196;10.924;2023-05-10T02:07:04;1.80;;;1.00;;
8421;SDS011;4248;48.196;10.924;2023-05-10T02:09:31;3.23;;;1.00;;
8421;SDS011;4248;48.196;10.924;2023-05-10T02:11:58;5.10;;;0.90;;
8421;SDS011;4248;48.196;10.924;2023-05-10T02:14:27;2.93;;;1.20;;
8421;SDS011;4248;48.196;10.924;2023-05-10T02:16:55;2.17;;;1.23;;
8421;SDS011;4248;48.196;10.924;2023-05-10T02:19:23;2.27;;;1.13;;
8421;SDS011;4248;48.196;10.924;2023-05-10T02:21:50;4.83;;;1.40;;
8421;SDS011;4248;48.196;10.924;2023-05-10T02:24:16;2.20;;;1.17;;
8421;SDS011;4248;48.196;10.924;2023-05-10T02:26:44;2.63;;;1.20;;
8421;SDS011;4248;48.196;10.924;2023-05-10T02:29:11;2.00;;;1.30;;
8421;SDS011;4248;48.196;10.924;2023-05-10T02:31:38;1.80;;;1.17;;
8421;SDS011;4248;48.196;10.924;2023-05-10T02:34:08;1.97;;;1.03;;
8421;SDS011;4248;48.196;10.924;2023-05-10T02:36:35;2.00;;;1.10;;
8421;SDS011;4248;48.196;10.924;2023-05-10T02:39:02;2.33;;;1.50;;
8421;SDS011;4248;48.196;10.924;2023-05-10T02:41:30;1.97;;;1.07;;
8421;SDS011;4248;48.196;10.924;2023-05-10T02:43:57;1.90;;;1.00;;
8421;SDS011;4248;48.196;10.924;2023-05-10T02:46:26;2.93;;;1.10;;
8421;SDS011;4248;48.196;10.924;2023-05-10T02:48:51;4.17;;;1.33;;
8421;SDS011;4248;48.196;10.924;2023-05-10T02:51:18;1.60;;;0.90;;
8421;SDS011;4248;48.196;10.924;2023-05-10T02:53:45;2.13;;;1.10;;
8421;SDS011;4248;48.196;10.924;2023-05-10T02:56:23;2.40;;;1.10;;
8421;SDS011;4248;48.196;10.924;2023-05-10T02:58:53;3.23;;;1.17;;
8421;SDS011;4248;48.196;10.924;2023-05-10T03:01:19;1.97;;;1.17;;
8421;SDS011;4248;48.196;10.924;2023-05-10T03:03:45;1.90;;;1.20;;
8421;SDS011;4248;48.196;10.924;2023-05-10T03:06:10;2.10;;;1.13;;
8421;SDS011;4248;48.196;10.924;2023-05-10T03:08:36;1.83;;;1.03;;
8421;SDS011;4248;48.196;10.924;2023-05-10T03:16:29;1.73;;;1.00;;
8421;SDS011;4248;48.196;10.924;2023-05-10T03:22:07;1.93;;;1.10;;
8421;SDS011;4248;48.196;10.924;2023-05-10T03:24:35;1.70;;;1.10;;
8421;SDS011;4248;48.196;10.924;2023-05-10T03:27:03;2.57;;;1.20;;
8421;SDS011;4248;48.196;10.924;2023-05-10T03:29:30;2.40;;;1.20;;
8421;SDS011;4248;48.196;10.924;2023-05-10T03:31:57;3.57;;;1.37;;
8421;SDS011;4248;48.196;10.924;2023-05-10T03:34:24;1.97;;;1.27;;
8421;SDS011;4248;48.196;10.924;2023-05-10T03:36:50;2.10;;;1.10;;
8421;SDS011;4248;48.196;10.924;2023-05-10T03:39:16;1.60;;;1.00;;
8421;SDS011;4248;48.196;10.924;2023-05-10T03:41:41;2.33;;;1.00;;
8421;SDS011;4248;48.196;10.924;2023-05-10T03:44:07;2.63;;;1.00;;
8421;SDS011;4248;48.196;10.924;2023-05-10T03:46:32;1.67;;;1.00;;
8421;SDS011;4248;48.196;10.924;2023-05-10T03:48:58;1.50;;;0.77;;
8421;SDS011;4248;48.196;10.924;2023-05-10T03:51:24;1.57;;;0.83;;
8421;SDS011;4248;48.196;10.924;2023-05-10T03:53:53;1.73;;;0.70;;
8421;SDS011;4248;48.196;10.924;2023-05-10T03:56:19;3.30;;;0.83;;
8421;SDS011;4248;48.196;10.924;2023-05-10T03:58:45;1.40;;;0.73;;
8421;SDS011;4248;48.196;10.924;2023-05-10T04:01:11;6.30;;;0.80;;
8421;SDS011;4248;48.196;10.924;2023-05-10T04:03:37;1.63;;;0.73;;
8421;SDS011;4248;48.196;10.924;2023-05-10T04:06:03;1.73;;;0.80;;
8421;SDS011;4248;48.196;10.924;2023-05-10T04:08:29;1.93;;;0.73;;
8421;SDS011;4248;48.196;10.924;2023-05-10T04:11:04;1.33;;;0.60;;
8421;SDS011;4248;48.196;10.924;2023-05-10T04:13:33;1.60;;;0.70;;
8421;SDS011;4248;48.196;10.924;2023-05-10T04:16:00;4.40;;;0.80;;
8421;SDS011;4248;48.196;10.924;2023-05-10T04:18:25;1.87;;;0.60;;
8421;SDS011;4248;48.196;10.924;2023-05-10T04:20:51;1.43;;;0.70;;
8421;SDS011;4248;48.196;10.924;2023-05-10T04:23:16;1.40;;;0.70;;
8421;SDS011;4248;48.196;10.924;2023-05-10T04:25:42;1.37;;;0.67;;
8421;SDS011;4248;48.196;10.924;2023-05-10T04:28:08;1.40;;;0.80;;
8421;SDS011;4248;48.196;10.924;2023-05-10T04:30:34;1.30;;;0.70;;
8421;SDS011;4248;48.196;10.924;2023-05-10T04:32:59;1.70;;;0.80;;
8421;SDS011;4248;48.196;10.924;2023-05-10T04:35:26;1.83;;;0.90;;
8421;SDS011;4248;48.196;10.924;2023-05-10T04:37:53;6.73;;;1.00;;
8421;SDS011;4248;48.196;10.924;2023-05-10T04:40:18;6.50;;;0.90;;
8421;SDS011;4248;48.196;10.924;2023-05-10T04:42:44;2.83;;;0.87;;
8421;SDS011;4248;48.196;10.924;2023-05-10T04:45:10;1.50;;;0.70;;
8421;SDS011;4248;48.196;10.924;2023-05-10T04:47:36;3.43;;;0.90;;
8421;SDS011;4248;48.196;10.924;2023-05-10T04:50:02;1.73;;;0.97;;
8421;SDS011;4248;48.196;10.924;2023-05-10T04:52:31;1.40;;;0.70;;
8421;SDS011;4248;48.196;10.924;2023-05-10T04:54:57;1.60;;;0.80;;
8421;SDS011;4248;48.196;10.924;2023-05-10T04:57:22;4.40;;;0.80;;
8421;SDS011;4248;48.196;10.924;2023-05-10T04:59:48;1.60;;;0.70;;
8421;SDS011;4248;48.196;10.924;2023-05-10T05:02:13;1.50;;;0.80;;
8421;SDS011;4248;48.196;10.924;2023-05-10T05:04:39;2.37;;;0.90;;
8421;SDS011;4248;48.196;10.924;2023-05-10T05:07:04;1.33;;;0.77;;
8421;SDS011;4248;48.196;10.924;2023-05-10T05:09:30;2.23;;;1.10;;
8421;SDS011;4248;48.196;10.924;2023-05-10T05:11:57;2.00;;;0.83;;
8421;SDS011;4248;48.196;10.924;2023-05-10T05:14:22;2.57;;;1.00;;
8421;SDS011;4248;48.196;10.924;2023-05-10T05:16:50;2.80;;;0.90;;
8421;SDS011;4248;48.196;10.924;2023-05-10T05:19:16;1.43;;;0.80;;
8421;SDS011;4248;48.196;10.924;2023-05-10T05:21:42;5.20;;;0.90;;
8421;SDS011;4248;48.196;10.924;2023-05-10T05:24:08;1.70;;;0.90;;
8421;SDS011;4248;48.196;10.924;2023-05-10T05:26:33;1.70;;;0.90;;
8421;SDS011;4248;48.196;10.924;2023-05-10T05:28:59;5.50;;;0.97;;
8421;SDS011;4248;48.196;10.924;2023-05-10T05:31:24;1.60;;;0.90;;
8421;SDS011;4248;48.196;10.924;2023-05-10T05:33:50;1.70;;;0.90;;
8421;SDS011;4248;48.196;10.924;2023-05-10T05:36:16;1.50;;;0.80;;
8421;SDS011;4248;48.196;10.924;2023-05-10T05:38:41;3.40;;;0.93;;
8421;SDS011;4248;48.196;10.924;2023-05-10T05:41:07;1.90;;;0.90;;
8421;SDS011;4248;48.196;10.924;2023-05-10T05:43:33;4.23;;;0.90;;
8421;SDS011;4248;48.196;10.924;2023-05-10T05:45:59;3.90;;;1.00;;
8421;SDS011;4248;48.196;10.924;2023-05-10T05:48:24;2.30;;;1.10;;
8421;SDS011;4248;48.196;10.924;2023-05-10T05:50:53;2.37;;;1.10;;
8421;SDS011;4248;48.196;10.924;2023-05-10T05:53:20;3.50;;;1.00;;
8421;SDS011;4248;48.196;10.924;2023-05-10T05:55:56;6.03;;;1.00;;
8421;SDS011;4248;48.196;10.924;2023-05-10T05:58:23;1.70;;;0.90;;
8421;SDS011;4248;48.196;10.924;2023-05-10T06:00:49;3.13;;;1.20;;
8421;SDS011;4248;48.196;10.924;2023-05-10T06:03:15;2.70;;;1.17;;
8421;SDS011;4248;48.196;10.924;2023-05-10T06:05:41;2.73;;;1.00;;
8421;SDS011;4248;48.196;10.924;2023-05-10T06:08:06;2.17;;;1.00;;
8421;SDS011;4248;48.196;10.924;2023-05-10T06:10:32;2.50;;;1.00;;
8421;SDS011;4248;48.196;10.924;2023-05-10T06:12:57;2.43;;;1.07;;
8421;SDS011;4248;48.196;10.924;2023-05-10T06:15:23;2.37;;;0.93;;
8421;SDS011;4248;48.196;10.924;2023-05-10T06:17:49;5.87;;;1.30;;
8421;SDS011;4248;48.196;10.924;2023-05-10T06:20:15;2.00;;;0.90;;
8421;SDS011;4248;48.196;10.924;2023-05-10T06:22:40;2.20;;;1.10;;
8421;SDS011;4248;48.196;10.924;2023-05-10T06:25:06;2.90;;;1.00;;
8421;SDS011;4248;48.196;10.924;2023-05-10T06:27:33;1.83;;;0.90;;
8421;SDS011;4248;48.196;10.924;2023-05-10T06:29:59;2.30;;;1.10;;
8421;SDS011;4248;48.196;10.924;2023-05-10T06:32:24;2.80;;;0.90;;
8421;SDS011;4248;48.196;10.924;2023-05-10T06:34:50;5.90;;;1.13;;
8421;SDS011;4248;48.196;10.924;2023-05-10T06:37:15;5.20;;;1.00;;
8421;SDS011;4248;48.196;10.924;2023-05-10T06:39:41;3.70;;;1.00;;
8421;SDS011;4248;48.196;10.924;2023-05-10T06:42:07;1.87;;;1.00;;
8421;SDS011;4248;48.196;10.924;2023-05-10T06:44:33;1.83;;;0.80;;
8421;SDS011;4248;48.196;10.924;2023-05-10T06:46:58;1.50;;;0.80;;
8421;SDS011;4248;48.196;10.924;2023-05-10T06:49:24;1.87;;;0.90;;
8421;SDS011;4248;48.196;10.924;2023-05-10T06:51:49;1.97;;;1.20;;
8421;SDS011;4248;48.196;10.924;2023-05-10T06:54:16;2.13;;;0.90;;
8421;SDS011;4248;48.196;10.924;2023-05-10T06:56:42;1.90;;;1.00;;
8421;SDS011;4248;48.196;10.924;2023-05-10T06:59:08;3.37;;;1.20;;
8421;SDS011;4248;48.196;10.924;2023-05-10T07:01:34;2.70;;;1.00;;
8421;SDS011;4248;48.196;10.924;2023-05-10T07:04:00;2.20;;;1.10;;
8421;SDS011;4248;48.196;10.924;2023-05-10T07:06:25;2.20;;;1.00;;
8421;SDS011;4248;48.196;10.924;2023-05-10T07:08:52;1.80;;;0.93;;
8421;SDS011;4248;48.196;10.924;2023-05-10T07:11:17;2.80;;;1.00;;
8421;SDS011;4248;48.196;10.924;2023-05-10T07:13:43;4.33;;;1.10;;
8421;SDS011;4248;48.196;10.924;2023-05-10T07:16:11;4.47;;;1.07;;
8421;SDS011;4248;48.196;10.924;2023-05-10T07:18:36;1.90;;;0.93;;
8421;SDS011;4248;48.196;10.924;2023-05-10T07:21:02;2.30;;;1.20;;
8421;SDS011;4248;48.196;10.924;2023-05-10T07:23:28;1.80;;;1.00;;
8421;SDS011;4248;48.196;10.924;2023-05-10T07:25:54;2.37;;;1.27;;
8421;SDS011;4248;48.196;10.924;2023-05-10T07:28:22;2.73;;;1.50;;
8421;SDS011;4248;48.196;10.924;2023-05-10T07:30:49;2.60;;;1.10;;
8421;SDS011;4248;48.196;10.924;2023-05-10T07:33:15;2.87;;;1.10;;
8421;SDS011;4248;48.196;10.924;2023-05-10T07:35:41;2.37;;;1.10;;
8421;SDS011;4248;48.196;10.924;2023-05-10T07:38:07;3.20;;;1.17;;
8421;SDS011;4248;48.196;10.924;2023-05-10T07:40:33;3.73;;;1.33;;
8421;SDS011;4248;48.196;10.924;2023-05-10T07:42:58;5.57;;;1.20;;
8421;SDS011;4248;48.196;10.924;2023-05-10T07:45:26;2.40;;;1.17;;
8421;SDS011;4248;48.196;10.924;2023-05-10T07:47:52;2.63;;;1.20;;
8421;SDS011;4248;48.196;10.924;2023-05-10T07:50:17;2.40;;;1.00;;
8421;SDS011;4248;48.196;10.924;2023-05-10T07:52:43;2.13;;;1.07;;
8421;SDS011;4248;48.196;10.924;2023-05-10T07:55:09;3.97;;;1.10;;
8421;SDS011;4248;48.196;10.924;2023-05-10T07:57:34;2.70;;;1.10;;
8421;SDS011;4248;48.196;10.924;2023-05-10T08:00:00;4.70;;;1.20;;
8421;SDS011;4248;48.196;10.924;2023-05-10T08:02:26;2.00;;;0.90;;
8421;SDS011;4248;48.196;10.924;2023-05-10T08:04:51;3.83;;;1.20;;
8421;SDS011;4248;48.196;10.924;2023-05-10T08:07:17;2.50;;;1.17;;
8421;SDS011;4248;48.196;10.924;2023-05-10T08:09:43;2.47;;;1.43;;
8421;SDS011;4248;48.196;10.924;2023-05-10T08:12:08;3.47;;;1.00;;
8421;SDS011;4248;48.196;10.924;2023-05-10T08:14:34;1.90;;;1.00;;
8421;SDS011;4248;48.196;10.924;2023-05-10T08:17:01;2.93;;;1.13;;
8421;SDS011;4248;48.196;10.924;2023-05-10T08:19:28;5.00;;;1.60;;
8421;SDS011;4248;48.196;10.924;2023-05-10T08:21:53;2.73;;;1.00;;
8421;SDS011;4248;48.196;10.924;2023-05-10T08:24:20;2.00;;;1.00;;
8421;SDS011;4248;48.196;10.924;2023-05-10T08:26:46;3.97;;;1.00;;
8421;SDS011;4248;48.196;10.924;2023-05-10T08:29:12;2.97;;;1.00;;
8421;SDS011;4248;48.196;10.924;2023-05-10T08:31:38;2.43;;;0.93;;
8421;SDS011;4248;48.196;10.924;2023-05-10T08:34:04;2.07;;;0.93;;
8421;SDS011;4248;48.196;10.924;2023-05-10T08:36:30;2.80;;;1.30;;
8421;SDS011;4248;48.196;10.924;2023-05-10T08:38:57;2.97;;;1.10;;
8421;SDS011;4248;48.196;10.924;2023-05-10T08:41:23;2.67;;;1.00;;
8421;SDS011;4248;48.196;10.924;2023-05-10T08:43:50;3.93;;;1.17;;
8421;SDS011;4248;48.196;10.924;2023-05-10T08:46:17;7.30;;;1.10;;
8421;SDS011;4248;48.196;10.924;2023-05-10T08:48:44;3.10;;;1.23;;
8421;SDS011;4248;48.196;10.924;2023-05-10T08:51:13;2.70;;;0.90;;
8421;SDS011;4248;48.196;10.924;2023-05-10T08:53:40;2.50;;;1.00;;
8421;SDS011;4248;48.196;10.924;2023-05-10T08:56:05;2.30;;;1.10;;
8421;SDS011;4248;48.196;10.924;2023-05-10T08:58:31;2.00;;;1.00;;
8421;SDS011;4248;48.196;10.924;2023-05-10T09:00:57;2.20;;;1.30;;
8421;SDS011;4248;48.196;10.924;2023-05-10T09:03:24;2.90;;;1.10;;
8421;SDS011;4248;48.196;10.924;2023-05-10T09:05:50;5.50;;;1.30;;
8421;SDS011;4248;48.196;10.924;2023-05-10T09:08:15;3.03;;;1.20;;
8421;SDS011;4248;48.196;10.924;2023-05-10T09:10:43;3.47;;;1.30;;
8421;SDS011;4248;48.196;10.924;2023-05-10T09:13:12;3.53;;;1.07;;
8421;SDS011;4248;48.196;10.924;2023-05-10T09:15:40;6.00;;;1.43;;
8421;SDS011;4248;48.196;10.924;2023-05-10T09:18:06;4.50;;;1.60;;
8421;SDS011;4248;48.196;10.924;2023-05-10T09:20:31;3.97;;;1.40;;
8421;SDS011;4248;48.196;10.924;2023-05-10T09:22:57;3.13;;;1.20;;
8421;SDS011;4248;48.196;10.924;2023-05-10T09:25:23;2.17;;;1.07;;
8421;SDS011;4248;48.196;10.924;2023-05-10T09:27:48;2.60;;;1.30;;
8421;SDS011;4248;48.196;10.924;2023-05-10T09:30:22;5.40;;;1.30;;
8421;SDS011;4248;48.196;10.924;2023-05-10T09:32:55;2.70;;;1.27;;
8421;SDS011;4248;48.196;10.924;2023-05-10T09:35:23;3.20;;;1.10;;
8421;SDS011;4248;48.196;10.924;2023-05-10T09:37:51;3.93;;;1.27;;
8421;SDS011;4248;48.196;10.924;2023-05-10T09:40:20;4.53;;;1.20;;
8421;SDS011;4248;48.196;10.924;2023-05-10T09:42:54;4.93;;;1.30;;
8421;SDS011;4248;48.196;10.924;2023-05-10T09:45:31;4.33;;;1.20;;
8421;SDS011;4248;48.196;10.924;2023-05-10T09:47:57;2.80;;;1.20;;
8421;SDS011;4248;48.196;10.924;2023-05-10T09:50:24;3.00;;;1.10;;
8421;SDS011;4248;48.196;10.924;2023-05-10T09:55:20;1.90;;;0.93;;
8421;SDS011;4248;48.196;10.924;2023-05-10T09:57:47;2.37;;;1.20;;
8421;SDS011;4248;48.196;10.924;2023-05-10T10:00:20;3.13;;;0.93;;
8421;SDS011;4248;48.196;10.924;2023-05-10T10:02:47;2.97;;;1.30;;
8421;SDS011;4248;48.196;10.924;2023-05-10T10:05:19;2.73;;;1.30;;
8421;SDS011;4248;48.196;10.924;2023-05-10T10:07:45;2.63;;;1.50;;
8421;SDS011;4248;48.196;10.924;2023-05-10T10:10:10;1.90;;;1.00;;
8421;SDS011;4248;48.196;10.924;2023-05-10T10:12:38;3.20;;;1.40;;
8421;SDS011;4248;48.196;10.924;2023-05-10T10:15:04;2.20;;;1.20;;
8421;SDS011;4248;48.196;10.924;2023-05-10T10:17:32;3.73;;;1.17;;
8421;SDS011;4248;48.196;10.924;2023-05-10T10:19:59;7.30;;;1.17;;
8421;SDS011;4248;48.196;10.924;2023-05-10T10:22:25;2.50;;;1.30;;
8421;SDS011;4248;48.196;10.924;2023-05-10T10:24:51;2.20;;;1.30;;
8421;SDS011;4248;48.196;10.924;2023-05-10T10:27:22;1.90;;;1.10;;
8421;SDS011;4248;48.196;10.924;2023-05-10T10:29:55;5.23;;;1.40;;
8421;SDS011;4248;48.196;10.924;2023-05-10T10:35:17;2.20;;;1.30;;
8421;SDS011;4248;48.196;10.924;2023-05-10T10:37:46;2.87;;;1.40;;
8421;SDS011;4248;48.196;10.924;2023-05-10T10:40:24;3.23;;;1.00;;
8421;SDS011;4248;48.196;10.924;2023-05-10T10:42:52;2.53;;;1.20;;
8421;SDS011;4248;48.196;10.924;2023-05-10T10:45:19;2.73;;;1.13;;
8421;SDS011;4248;48.196;10.924;2023-05-10T10:47:45;2.43;;;1.30;;
8421;SDS011;4248;48.196;10.924;2023-05-10T10:50:11;3.03;;;1.13;;
8421;SDS011;4248;48.196;10.924;2023-05-10T10:52:45;2.27;;;1.10;;
8421;SDS011;4248;48.196;10.924;2023-05-10T10:55:14;4.50;;;1.50;;
8421;SDS011;4248;48.196;10.924;2023-05-10T11:08:07;7.23;;;1.20;;
8421;SDS011;4248;48.196;10.924;2023-05-10T11:10:51;2.27;;;1.10;;
8421;SDS011;4248;48.196;10.924;2023-05-10T11:13:26;5.27;;;1.53;;
8421;SDS011;4248;48.196;10.924;2023-05-10T11:15:52;6.90;;;1.30;;
8421;SDS011;4248;48.196;10.924;2023-05-10T11:18:19;2.87;;;1.50;;
8421;SDS011;4248;48.196;10.924;2023-05-10T11:20:58;7.53;;;1.30;;
8421;SDS011;4248;48.196;10.924;2023-05-10T11:23:32;2.40;;;1.20;;
8421;SDS011;4248;48.196;10.924;2023-05-10T11:26:12;3.30;;;1.20;;
8421;SDS011;4248;48.196;10.924;2023-05-10T11:28:42;6.83;;;1.10;;
8421;SDS011;4248;48.196;10.924;2023-05-10T11:31:14;2.20;;;1.07;;
8421;SDS011;4248;48.196;10.924;2023-05-10T11:33:44;3.00;;;0.97;;
8421;SDS011;4248;48.196;10.924;2023-05-10T11:36:14;2.20;;;0.90;;
8421;SDS011;4248;48.196;10.924;2023-05-10T11:38:41;3.13;;;0.97;;
8421;SDS011;4248;48.196;10.924;2023-05-10T11:41:11;4.73;;;1.20;;
8421;SDS011;4248;48.196;10.924;2023-05-10T11:43:40;2.07;;;1.00;;
8421;SDS011;4248;48.196;10.924;2023-05-10T11:46:07;4.67;;;1.00;;
8421;SDS011;4248;48.196;10.924;2023-05-10T11:48:35;5.60;;;1.20;;
8421;SDS011;4248;48.196;10.924;2023-05-10T11:51:01;4.47;;;1.50;;
8421;SDS011;4248;48.196;10.924;2023-05-10T11:53:28;2.17;;;1.00;;
8421;SDS011;4248;48.196;10.924;2023-05-10T11:56:02;2.50;;;1.10;;
8421;SDS011;4248;48.196;10.924;2023-05-10T11:58:28;2.60;;;1.17;;
8421;SDS011;4248;48.196;10.924;2023-05-10T12:00:54;3.00;;;1.03;;
8421;SDS011;4248;48.196;10.924;2023-05-10T12:03:19;3.13;;;1.30;;
8421;SDS011;4248;48.196;10.924;2023-05-10T12:05:45;1.90;;;0.90;;
8421;SDS011;4248;48.196;10.924;2023-05-10T12:08:11;2.60;;;1.20;;
8421;SDS011;4248;48.196;10.924;2023-05-10T12:10:38;2.63;;;1.00;;
8421;SDS011;4248;48.196;10.924;2023-05-10T12:13:03;2.87;;;1.13;;
8421;SDS011;4248;48.196;10.924;2023-05-10T12:15:29;3.80;;;1.20;;
8421;SDS011;4248;48.196;10.924;2023-05-10T12:17:54;2.10;;;1.00;;
8421;SDS011;4248;48.196;10.924;2023-05-10T12:20:22;2.83;;;0.90;;
8421;SDS011;4248;48.196;10.924;2023-05-10T12:22:50;2.63;;;1.30;;
8421;SDS011;4248;48.196;10.924;2023-05-10T12:25:20;4.20;;;1.00;;
8421;SDS011;4248;48.196;10.924;2023-05-10T12:27:50;2.17;;;0.83;;
8421;SDS011;4248;48.196;10.924;2023-05-10T12:32:47;4.23;;;0.90;;
8421;SDS011;4248;48.196;10.924;2023-05-10T12:35:13;2.00;;;1.00;;
8421;SDS011;4248;48.196;10.924;2023-05-10T12:37:38;2.20;;;0.90;;
8421;SDS011;4248;48.196;10.924;2023-05-10T12:40:08;2.20;;;0.90;;
8421;SDS011;4248;48.196;10.924;2023-05-10T12:42:35;1.83;;;0.87;;
8421;SDS011;4248;48.196;10.924;2023-05-10T12:45:02;5.20;;;1.30;;
8421;SDS011;4248;48.196;10.924;2023-05-10T12:47:29;5.30;;;1.00;;
8421;SDS011;4248;48.196;10.924;2023-05-10T12:49:55;2.57;;;1.00;;
8421;SDS011;4248;48.196;10.924;2023-05-10T12:52:20;2.27;;;1.07;;
8421;SDS011;4248;48.196;10.924;2023-05-10T12:54:46;1.93;;;0.90;;
8421;SDS011;4248;48.196;10.924;2023-05-10T12:57:12;4.07;;;1.30;;
8421;SDS011;4248;48.196;10.924;2023-05-10T12:59:38;2.77;;;1.20;;
8421;SDS011;4248;48.196;10.924;2023-05-10T13:02:04;2.10;;;0.80;;
8421;SDS011;4248;48.196;10.924;2023-05-10T13:04:30;2.27;;;0.90;;
8421;SDS011;4248;48.196;10.924;2023-05-10T13:06:56;3.07;;;1.00;;
8421;SDS011;4248;48.196;10.924;2023-05-10T13:09:23;1.80;;;0.90;;
8421;SDS011;4248;48.196;10.924;2023-05-10T13:11:50;2.00;;;1.00;;
8421;SDS011;4248;48.196;10.924;2023-05-10T13:14:16;2.00;;;1.00;;
8421;SDS011;4248;48.196;10.924;2023-05-10T13:16:41;2.53;;;1.00;;
8421;SDS011;4248;48.196;10.924;2023-05-10T13:19:07;2.37;;;0.73;;
8421;SDS011;4248;48.196;10.924;2023-05-10T13:21:33;2.80;;;0.83;;
8421;SDS011;4248;48.196;10.924;2023-05-10T13:23:59;2.53;;;1.13;;
8421;SDS011;4248;48.196;10.924;2023-05-10T13:26:26;2.80;;;1.10;;
8421;SDS011;4248;48.196;10.924;2023-05-10T13:28:51;5.50;;;1.10;;
8421;SDS011;4248;48.196;10.924;2023-05-10T13:31:17;2.80;;;1.03;;
8421;SDS011;4248;48.196;10.924;2023-05-10T13:33:42;2.10;;;1.00;;
8421;SDS011;4248;48.196;10.924;2023-05-10T13:36:08;1.80;;;0.80;;
8421;SDS011;4248;48.196;10.924;2023-05-10T13:38:34;2.10;;;0.90;;
8421;SDS011;4248;48.196;10.924;2023-05-10T13:40:59;6.60;;;0.90;;
8421;SDS011;4248;48.196;10.924;2023-05-10T13:43:25;2.50;;;1.20;;
8421;SDS011;4248;48.196;10.924;2023-05-10T13:45:50;2.00;;;0.80;;
8421;SDS011;4248;48.196;10.924;2023-05-10T13:48:17;2.37;;;1.00;;
8421;SDS011;4248;48.196;10.924;2023-05-10T13:50:42;2.20;;;0.90;;
8421;SDS011;4248;48.196;10.924;2023-05-10T13:53:08;3.03;;;0.97;;
8421;SDS011;4248;48.196;10.924;2023-05-10T13:55:34;2.50;;;0.97;;
8421;SDS011;4248;48.196;10.924;2023-05-10T13:58:00;1.90;;;1.00;;
8421;SDS011;4248;48.196;10.924;2023-05-10T14:00:25;2.00;;;0.97;;
8421;SDS011;4248;48.196;10.924;2023-05-10T14:02:51;2.77;;;1.00;;
8421;SDS011;4248;48.196;10.924;2023-05-10T14:05:17;3.80;;;1.10;;
8421;SDS011;4248;48.196;10.924;2023-05-10T14:07:43;5.40;;;1.33;;
8421;SDS011;4248;48.196;10.924;2023-05-10T14:10:08;2.80;;;1.27;;
8421;SDS011;4248;48.196;10.924;2023-05-10T14:12:34;2.20;;;1.00;;
8421;SDS011;4248;48.196;10.924;2023-05-10T14:15:00;4.13;;;1.00;;
8421;SDS011;4248;48.196;10.924;2023-05-10T14:17:26;6.23;;;1.07;;
8421;SDS011;4248;48.196;10.924;2023-05-10T14:19:52;2.83;;;1.10;;
8421;SDS011;4248;48.196;10.924;2023-05-10T14:22:18;2.40;;;1.20;;
8421;SDS011;4248;48.196;10.924;2023-05-10T14:24:43;1.90;;;0.90;;
8421;SDS011;4248;48.196;10.924;2023-05-10T14:27:11;2.00;;;1.00;;
8421;SDS011;4248;48.196;10.924;2023-05-10T14:29:37;2.00;;;1.20;;
8421;SDS011;4248;48.196;10.924;2023-05-10T14:32:03;2.00;;;0.93;;
8421;SDS011;4248;48.196;10.924;2023-05-10T14:34:28;3.13;;;1.30;;
8421;SDS011;4248;48.196;10.924;2023-05-10T14:36:54;2.40;;;1.00;;
8421;SDS011;4248;48.196;10.924;2023-05-10T14:39:20;3.07;;;1.20;;
8421;SDS011;4248;48.196;10.924;2023-05-10T14:41:45;1.90;;;1.00;;
8421;SDS011;4248;48.196;10.924;2023-05-10T14:44:12;2.20;;;1.10;;
8421;SDS011;4248;48.196;10.924;2023-05-10T14:46:38;4.10;;;1.30;;
8421;SDS011;4248;48.196;10.924;2023-05-10T14:49:04;2.63;;;1.20;;
8421;SDS011;4248;48.196;10.924;2023-05-10T14:51:30;2.33;;;1.00;;
8421;SDS011;4248;48.196;10.924;2023-05-10T14:53:56;4.83;;;1.17;;
8421;SDS011;4248;48.196;10.924;2023-05-10T14:56:22;2.93;;;1.20;;
8421;SDS011;4248;48.196;10.924;2023-05-10T14:58:47;4.93;;;1.30;;
8421;SDS011;4248;48.196;10.924;2023-05-10T15:01:14;2.67;;;1.30;;
8421;SDS011;4248;48.196;10.924;2023-05-10T15:03:39;4.50;;;1.40;;
8421;SDS011;4248;48.196;10.924;2023-05-10T15:06:05;2.83;;;1.30;;
8421;SDS011;4248;48.196;10.924;2023-05-10T15:08:32;4.43;;;1.20;;
8421;SDS011;4248;48.196;10.924;2023-05-10T15:10:58;2.17;;;1.10;;
8421;SDS011;4248;48.196;10.924;2023-05-10T15:13:25;2.13;;;1.20;;
8421;SDS011;4248;48.196;10.924;2023-05-10T15:15:50;2.97;;;1.30;;
8421;SDS011;4248;48.196;10.924;2023-05-10T15:18:16;3.23;;;1.27;;
8421;SDS011;4248;48.196;10.924;2023-05-10T15:20:42;5.10;;;1.20;;
8421;SDS011;4248;48.196;10.924;2023-05-10T15:23:07;3.77;;;1.57;;
8421;SDS011;4248;48.196;10.924;2023-05-10T15:25:33;5.23;;;1.27;;
8421;SDS011;4248;48.196;10.924;2023-05-10T15:28:02;2.30;;;1.20;;
8421;SDS011;4248;48.196;10.924;2023-05-10T15:30:29;2.97;;;1.37;;
8421;SDS011;4248;48.196;10.924;2023-05-10T15:32:54;2.30;;;1.10;;
8421;SDS011;4248;48.196;10.924;2023-05-10T15:35:20;2.13;;;1.23;;